Time;durP1;ratioP1;P1;durP2;ratioP2;P2;SDS_P1;SDS_P2;PMS_P1;PMS_P2;Temp;Humidity;BMP_temperature;BMP_pressure;BME280_temperature;BME280_humidity;BME280_pressure;Samples;Min_cycle;Max_cycle;Signal;HPM_P1;HPM_P2
2022/04/23 00:00:59;;;;;;;;;;;10.20;99.90;;;;;;5092002;28;20372;-74
2022/04/23 00:03:25;;;;;;;;;;;10.20;99.90;;;;;;5106220;28;20019;-74
2022/04/23 00:05:50;;;;;;;;;;;10.20;99.90;;;;;;5103077;28;19920;-73
2022/04/23 00:08:16;;;;;;;;;;;10.10;99.90;;;;;;5093113;28;20437;-73
2022/04/23 00:10:41;;;;;;;;;;;10.10;99.90;;;;;;5092610;28;19920;-73
2022/04/23 00:13:07;;;;;;;;;;;10.10;99.90;;;;;;5093032;28;19928;-73
2022/04/23 00:15:38;;;;;;;;;;;10.10;99.90;;;;;;5093351;28;19920;-74
2022/04/23 00:18:07;;;;;;;;;;;10.50;99.90;;;;;;5091718;28;20367;-73
2022/04/23 00:20:33;;;;;;;;;;;10.00;99.90;;;;;;5091919;28;20283;-74
2022/04/23 00:22:59;;;;;;;;;;;10.00;99.90;;;;;;5091708;28;19927;-73
2022/04/23 00:25:28;;;;;;;;;;;10.10;99.90;;;;;;5092762;28;19920;-74
2022/04/23 00:27:53;;;;;;;;;;;10.00;99.90;;;;;;5091324;28;20007;-74
2022/04/23 00:30:19;;;;;;;;;;;10.80;99.90;;;;;;5104447;28;19960;-74
2022/04/23 00:32:45;;;;;;;;;;;10.00;99.90;;;;;;5092357;28;19942;-74
2022/04/23 00:35:17;;;;;;;;;;;10.00;99.90;;;;;;5108320;28;19942;-74
2022/04/23 00:37:45;;;;;;;;;;;9.90;99.90;;;;;;5091983;28;19923;-74
2022/04/23 00:40:16;;;;;;;;;;;9.90;99.90;;;;;;5091770;28;19920;-74
2022/04/23 00:42:46;;;;;;;;;;;9.90;99.90;;;;;;5092694;28;19924;-74
2022/04/23 00:45:11;;;;;;;;;;;9.90;99.90;;;;;;5093078;28;19920;-74
2022/04/23 00:47:38;;;;;;;;;;;9.90;99.90;;;;;;5091765;28;19920;-74
2022/04/23 00:50:04;;;;;;;;;;;9.90;99.90;;;;;;5092340;28;19927;-74
2022/04/23 00:52:30;;;;;;;;;;;9.80;99.90;;;;;;5091551;28;19919;-74
2022/04/23 00:54:56;;;;;;;;;;;9.80;99.90;;;;;;5092965;28;19920;-74
2022/04/23 00:57:21;;;;;;;;;;;9.80;99.90;;;;;;5091158;28;19963;-74
2022/04/23 00:59:49;;;;;;;;;;;9.80;99.90;;;;;;5092254;28;19971;-74
2022/04/23 01:02:15;;;;;;;;;;;9.70;99.90;;;;;;5092509;28;19920;-73
2022/04/23 01:04:40;;;;;;;;;;;9.70;99.90;;;;;;5092824;28;19934;-73
2022/04/23 01:07:07;;;;;;;;;;;9.70;99.90;;;;;;5108638;28;19920;-73
2022/04/23 01:09:32;;;;;;;;;;;9.70;99.90;;;;;;5086011;28;19928;-74
2022/04/23 01:12:00;;;;;;;;;;;9.70;99.90;;;;;;5072260;28;20291;-75
2022/04/23 01:14:26;;;;;;;;;;;9.70;99.90;;;;;;5083829;28;19919;-75
2022/04/23 01:16:52;;;;;;;;;;;9.70;99.90;;;;;;5092777;28;19920;-75
2022/04/23 01:19:18;;;;;;;;;;;9.60;99.90;;;;;;5108272;28;19923;-75
2022/04/23 01:21:43;;;;;;;;;;;9.60;99.90;;;;;;5092002;28;20030;-75
2022/04/23 01:24:09;;;;;;;;;;;9.60;99.90;;;;;;5090464;28;20454;-75
2022/04/23 01:26:34;;;;;;;;;;;9.50;99.90;;;;;;5093068;28;19920;-75
2022/04/23 01:29:00;;;;;;;;;;;9.50;99.90;;;;;;5092496;28;19974;-75
2022/04/23 01:31:26;;;;;;;;;;;9.50;99.90;;;;;;5091101;28;20283;-74
2022/04/23 01:33:52;;;;;;;;;;;9.50;99.90;;;;;;5108503;28;19920;-74
2022/04/23 01:36:17;;;;;;;;;;;9.40;99.90;;;;;;5091437;28;19920;-74
2022/04/23 01:38:43;;;;;;;;;;;9.40;99.90;;;;;;5108354;28;19973;-74
2022/04/23 01:41:09;;;;;;;;;;;9.30;99.90;;;;;;5092119;28;19975;-74
2022/04/23 01:43:34;;;;;;;;;;;9.30;99.90;;;;;;5091573;28;19927;-74
2022/04/23 01:46:00;;;;;;;;;;;9.30;99.90;;;;;;5091081;28;19989;-74
2022/04/23 01:48:25;;;;;;;;;;;9.30;99.90;;;;;;5104326;28;19920;-74
2022/04/23 01:50:51;;;;;;;;;;;9.20;99.90;;;;;;5108340;28;19920;-74
2022/04/23 01:53:18;;;;;;;;;;;9.20;99.90;;;;;;5091217;28;20604;-74
2022/04/23 01:55:43;;;;;;;;;;;9.20;99.90;;;;;;5092818;28;19920;-74
2022/04/23 01:58:09;;;;;;;;;;;9.10;99.90;;;;;;5101727;28;20333;-74
2022/04/23 02:00:36;;;;;;;;;;;9.20;99.90;;;;;;5073819;28;20337;-74
2022/04/23 02:03:01;;;;;;;;;;;9.10;99.90;;;;;;5090700;28;19976;-74
2022/04/23 02:05:27;;;;;;;;;;;9.10;99.90;;;;;;5098459;28;19924;-76
2022/04/23 02:07:52;;;;;;;;;;;9.10;99.90;;;;;;5091766;28;20028;-75
2022/04/23 02:10:18;;;;;;;;;;;9.10;99.90;;;;;;5090978;28;19928;-74
2022/04/23 02:12:45;;;;;;;;;;;9.10;99.90;;;;;;5090995;28;20367;-74
2022/04/23 02:15:12;;;;;;;;;;;9.10;99.90;;;;;;5091690;28;19920;-75
2022/04/23 02:17:39;;;;;;;;;;;9.10;99.90;;;;;;5092168;28;20379;-74
2022/04/23 02:20:06;;;;;;;;;;;9.00;99.90;;;;;;5092550;28;19926;-74
2022/04/23 02:22:32;;;;;;;;;;;9.10;99.90;;;;;;5095384;28;20358;-74
2022/04/23 02:24:58;;;;;;;;;;;9.10;99.90;;;;;;5094363;28;20326;-74
2022/04/23 02:27:24;;;;;;;;;;;9.10;99.90;;;;;;5095136;28;19920;-74
2022/04/23 02:29:53;;;;;;;;;;;9.00;99.90;;;;;;5094927;28;19927;-75
2022/04/23 02:32:21;;;;;;;;;;;9.10;99.90;;;;;;5111613;28;19942;-75
2022/04/23 02:34:47;;;;;;;;;;;9.10;99.90;;;;;;5094202;28;19924;-75
2022/04/23 02:37:13;;;;;;;;;;;9.10;99.90;;;;;;5106697;28;19921;-75
2022/04/23 02:39:39;;;;;;;;;;;9.10;99.90;;;;;;5093479;28;19978;-75
2022/04/23 02:42:05;;;;;;;;;;;9.10;99.90;;;;;;5093459;28;20403;-74
2022/04/23 02:44:31;;;;;;;;;;;9.00;99.90;;;;;;5095798;28;19971;-75
2022/04/23 02:46:56;;;;;;;;;;;9.00;99.90;;;;;;5093989;28;19920;-74
2022/04/23 02:49:22;;;;;;;;;;;9.00;99.90;;;;;;5105773;28;20010;-75
2022/04/23 02:51:47;;;;;;;;;;;9.00;99.90;;;;;;5083540;28;19928;-75
2022/04/23 02:54:13;;;;;;;;;;;9.00;99.90;;;;;;5094074;28;19920;-75
2022/04/23 02:56:38;;;;;;;;;;;9.00;99.90;;;;;;5093923;28;19935;-75
2022/04/23 02:59:06;;;;;;;;;;;9.00;99.90;;;;;;5106912;28;20003;-75
2022/04/23 03:01:31;;;;;;;;;;;9.00;99.90;;;;;;5075234;28;19920;-74
2022/04/23 03:03:58;;;;;;;;;;;9.00;99.90;;;;;;5074190;28;19920;-74
2022/04/23 03:06:28;;;;;;;;;;;9.00;99.90;;;;;;5102820;28;19978;-75
2022/04/23 03:08:55;;;;;;;;;;;9.00;99.90;;;;;;5095392;28;19951;-75
2022/04/23 03:11:20;;;;;;;;;;;9.00;99.90;;;;;;5093310;28;19920;-74
2022/04/23 03:13:46;;;;;;;;;;;9.00;99.90;;;;;;5110712;28;19927;-75
2022/04/23 03:16:11;;;;;;;;;;;9.00;99.90;;;;;;5093630;28;19965;-75
2022/04/23 03:18:37;;;;;;;;;;;9.00;99.90;;;;;;5091697;28;19927;-74
2022/04/23 03:21:02;;;;;;;;;;;8.90;99.90;;;;;;5094035;28;20375;-74
2022/04/23 03:23:27;;;;;;;;;;;8.90;99.90;;;;;;5092902;28;19935;-75
2022/04/23 03:25:53;;;;;;;;;;;8.90;99.90;;;;;;5092385;28;19921;-74
2022/04/23 03:28:20;;;;;;;;;;;8.90;99.90;;;;;;5074085;28;20376;-76
2022/04/23 03:30:46;;;;;;;;;;;8.90;99.90;;;;;;5074127;28;19928;-75
2022/04/23 03:33:11;;;;;;;;;;;8.90;99.90;;;;;;5072180;28;19927;-75
2022/04/23 03:35:37;;;;;;;;;;;8.80;99.90;;;;;;5083742;28;19924;-75
2022/04/23 03:38:03;;;;;;;;;;;8.80;99.90;;;;;;5109197;28;19927;-75
2022/04/23 03:40:29;;;;;;;;;;;8.80;99.90;;;;;;5093248;28;19930;-75
2022/04/23 03:42:54;;;;;;;;;;;8.70;99.90;;;;;;5093067;28;20347;-75
2022/04/23 03:45:20;;;;;;;;;;;8.70;99.90;;;;;;5091940;28;20275;-75
2022/04/23 03:47:46;;;;;;;;;;;8.70;99.90;;;;;;5093960;28;19926;-75
2022/04/23 03:50:12;;;;;;;;;;;8.60;99.90;;;;;;5075945;28;19943;-74
2022/04/23 03:52:38;;;;;;;;;;;8.60;99.90;;;;;;5093533;28;19967;-74
2022/04/23 03:55:04;;;;;;;;;;;8.60;99.90;;;;;;5110113;28;20374;-75
2022/04/23 03:57:30;;;;;;;;;;;8.50;99.90;;;;;;5093193;28;19924;-75
2022/04/23 03:59:55;;;;;;;;;;;8.50;99.90;;;;;;5109569;28;19920;-74
2022/04/23 04:02:21;;;;;;;;;;;8.50;99.90;;;;;;5109821;28;19920;-75
2022/04/23 04:04:47;;;;;;;;;;;8.50;99.90;;;;;;5092405;28;20452;-74
2022/04/23 04:07:18;;;;;;;;;;;8.50;99.90;;;;;;5092321;28;19920;-75
2022/04/23 04:09:43;;;;;;;;;;;8.40;99.90;;;;;;5092934;28;19920;-75
2022/04/23 04:12:10;;;;;;;;;;;8.40;99.90;;;;;;5093578;28;19919;-75
2022/04/23 04:14:36;;;;;;;;;;;8.40;99.90;;;;;;5091743;28;19919;-74
2022/04/23 04:17:02;;;;;;;;;;;8.30;99.90;;;;;;5093235;28;19920;-74
2022/04/23 04:19:28;;;;;;;;;;;8.30;99.90;;;;;;5092971;28;19927;-74
2022/04/23 04:21:54;;;;;;;;;;;8.30;99.90;;;;;;5084052;28;19928;-74
2022/04/23 04:24:20;;;;;;;;;;;8.30;99.90;;;;;;5084227;28;19924;-75
2022/04/23 04:26:47;;;;;;;;;;;8.30;99.90;;;;;;5080516;28;19920;-74
2022/04/23 04:29:13;;;;;;;;;;;8.20;99.90;;;;;;5088156;28;20018;-74
2022/04/23 04:31:48;;;;;;;;;;;8.20;99.90;;;;;;5081324;28;19931;-75
2022/04/23 04:34:15;;;;;;;;;;;8.20;99.90;;;;;;5090853;28;19920;-74
2022/04/23 04:36:41;;;;;;;;;;;8.20;99.90;;;;;;5096748;28;19927;-74
2022/04/23 04:39:06;;;;;;;;;;;8.30;99.90;;;;;;5088258;28;19919;-74
2022/04/23 04:41:32;;;;;;;;;;;8.30;99.90;;;;;;5091176;28;20492;-74
2022/04/23 04:43:57;;;;;;;;;;;8.30;99.90;;;;;;5090646;28;19920;-74
2022/04/23 04:46:23;;;;;;;;;;;8.30;99.90;;;;;;5091746;28;19927;-74
2022/04/23 04:48:49;;;;;;;;;;;8.30;99.90;;;;;;5092626;28;20286;-74
2022/04/23 04:51:15;;;;;;;;;;;8.40;99.90;;;;;;5106956;28;19970;-74
2022/04/23 04:53:40;;;;;;;;;;;8.40;99.90;;;;;;5077639;28;19959;-74
2022/04/23 04:56:07;;;;;;;;;;;8.40;99.90;;;;;;5092292;28;19969;-74
2022/04/23 04:58:33;;;;;;;;;;;8.40;99.90;;;;;;5092862;28;19920;-74
2022/04/23 05:00:58;;;;;;;;;;;8.40;99.90;;;;;;5092468;28;19969;-74
2022/04/23 05:03:25;;;;;;;;;;;8.50;99.90;;;;;;5075593;28;19920;-74
2022/04/23 05:05:51;;;;;;;;;;;8.50;99.90;;;;;;5091717;28;19933;-74
2022/04/23 05:08:17;;;;;;;;;;;8.50;99.90;;;;;;5091291;28;19924;-75
2022/04/23 05:10:46;;;;;;;;;;;8.50;99.90;;;;;;5083176;28;19920;-73
2022/04/23 05:13:11;;;;;;;;;;;8.50;99.90;;;;;;5083438;28;19920;-73
2022/04/23 05:15:37;;;;;;;;;;;8.60;99.90;;;;;;5083619;28;19935;-74
2022/04/23 05:18:03;;;;;;;;;;;8.60;99.90;;;;;;5099773;28;19928;-74
2022/04/23 05:20:28;;;;;;;;;;;8.60;99.90;;;;;;5080880;28;20279;-74
2022/04/23 05:22:54;;;;;;;;;;;8.70;99.90;;;;;;5083138;28;20038;-73
2022/04/23 05:25:19;;;;;;;;;;;9.80;99.90;;;;;;5083048;28;19927;-73
2022/04/23 05:27:45;;;;;;;;;;;8.80;99.90;;;;;;5083309;28;19935;-73
2022/04/23 05:30:11;;;;;;;;;;;8.90;99.90;;;;;;5086125;28;20355;-74
2022/04/23 05:32:36;;;;;;;;;;;8.90;99.90;;;;;;5085103;28;20337;-74
2022/04/23 05:35:02;;;;;;;;;;;8.90;99.90;;;;;;5088860;28;20437;-73
2022/04/23 05:37:28;;;;;;;;;;;8.90;99.90;;;;;;5103634;28;20422;-74
2022/04/23 05:39:53;;;;;;;;;;;9.00;99.90;;;;;;5091766;28;19927;-74
2022/04/23 05:42:18;;;;;;;;;;;9.00;99.90;;;;;;5090339;28;19920;-73
2022/04/23 05:44:44;;;;;;;;;;;9.10;99.90;;;;;;5090249;28;19930;-74
2022/04/23 05:47:09;;;;;;;;;;;9.10;99.90;;;;;;5078094;28;19917;-74
2022/04/23 05:49:38;;;;;;;;;;;9.20;99.90;;;;;;5087479;28;19960;-74
2022/04/23 05:52:04;;;;;;;;;;;9.20;99.90;;;;;;5090597;28;19920;-74
2022/04/23 05:54:32;;;;;;;;;;;9.20;99.90;;;;;;5090972;28;19985;-73
2022/04/23 05:56:57;;;;;;;;;;;9.60;99.90;;;;;;5108150;28;19924;-74
2022/04/23 05:59:28;;;;;;;;;;;9.30;99.90;;;;;;5082795;28;19915;-74
2022/04/23 06:01:55;;;;;;;;;;;9.30;99.90;;;;;;5094988;28;19980;-82
2022/04/23 06:04:20;;;;;;;;;;;9.30;99.90;;;;;;5091909;28;19939;-76
2022/04/23 06:06:46;;;;;;;;;;;9.40;99.90;;;;;;5094557;28;19920;-85
2022/04/23 06:09:14;;;;;;;;;;;9.40;99.90;;;;;;5094698;28;19920;-84
2022/04/23 06:11:39;;;;;;;;;;;9.50;99.90;;;;;;5094640;28;19927;-76
2022/04/23 06:14:05;;;;;;;;;;;9.50;99.90;;;;;;5093802;28;19919;-77
2022/04/23 06:16:30;;;;;;;;;;;9.60;99.90;;;;;;5095515;28;19965;-82
2022/04/23 06:18:56;;;;;;;;;;;9.60;99.90;;;;;;5095335;28;20009;-77
2022/04/23 06:21:21;;;;;;;;;;;9.60;99.90;;;;;;5099245;28;20287;-75
2022/04/23 06:23:47;;;;;;;;;;;9.70;99.90;;;;;;5075397;28;19924;-78
2022/04/23 06:26:12;;;;;;;;;;;9.70;99.90;;;;;;5111424;27;20281;-75
2022/04/23 06:28:41;;;;;;;;;;;9.80;99.90;;;;;;5094235;28;19946;-71
2022/04/23 06:31:06;;;;;;;;;;;9.90;99.90;;;;;;5095139;28;19920;-75
2022/04/23 06:33:32;;;;;;;;;;;9.90;99.90;;;;;;5093896;28;20381;-73
2022/04/23 06:35:58;;;;;;;;;;;10.00;99.90;;;;;;5093197;28;19927;-72
2022/04/23 06:38:24;;;;;;;;;;;10.10;99.90;;;;;;5093910;28;19971;-71
2022/04/23 06:40:49;;;;;;;;;;;10.10;99.90;;;;;;5094913;28;19970;-74
2022/04/23 06:43:15;;;;;;;;;;;10.20;99.90;;;;;;5094273;28;19924;-73
2022/04/23 06:45:40;;;;;;;;;;;10.20;99.90;;;;;;5094321;28;19946;-71
2022/04/23 06:48:06;;;;;;;;;;;10.30;99.90;;;;;;5093252;28;19927;-72
2022/04/23 06:50:35;;;;;;;;;;;10.30;99.90;;;;;;5075731;28;19967;-76
2022/04/23 06:53:01;;;;;;;;;;;10.50;99.90;;;;;;5090500;28;19974;-76
2022/04/23 06:55:27;;;;;;;;;;;10.50;99.90;;;;;;5093350;28;19920;-77
2022/04/23 06:57:53;;;;;;;;;;;10.50;99.90;;;;;;5096063;28;19927;-76
2022/04/23 07:00:21;;;;;;;;;;;10.50;99.90;;;;;;5095181;28;19948;-77
2022/04/23 07:02:46;;;;;;;;;;;10.70;99.90;;;;;;5093064;28;19924;-73
2022/04/23 07:05:12;;;;;;;;;;;10.70;99.90;;;;;;5093634;28;19931;-74
2022/04/23 07:07:37;;;;;;;;;;;10.70;99.90;;;;;;5095203;28;19953;-72
2022/04/23 07:10:03;;;;;;;;;;;10.80;99.90;;;;;;5094048;28;20331;-70
2022/04/23 07:12:29;;;;;;;;;;;10.90;99.90;;;;;;5093503;28;20383;-74
2022/04/23 07:14:54;;;;;;;;;;;11.00;99.90;;;;;;5093723;28;19923;-73
2022/04/23 07:17:26;;;;;;;;;;;11.00;99.90;;;;;;5093153;28;19971;-75
2022/04/23 07:19:55;;;;;;;;;;;11.20;99.90;;;;;;5093605;28;20359;-77
2022/04/23 07:22:20;;;;;;;;;;;11.50;99.90;;;;;;5094656;28;19927;-75
2022/04/23 07:24:48;;;;;;;;;;;12.20;99.90;;;;;;5093036;28;19920;-79
2022/04/23 07:27:13;;;;;;;;;;;13.00;99.90;;;;;;5094217;28;19920;-79
2022/04/23 07:29:39;;;;;;;;;;;13.30;99.90;;;;;;5092877;28;19981;-82
2022/04/23 07:32:05;;;;;;;;;;;13.20;99.90;;;;;;5094412;28;19974;-82
2022/04/23 07:37:30;;;;;;;;;;;13.20;99.90;;;;;;5072260;28;19928;-77
2022/04/23 07:39:57;;;;;;;;;;;14.00;99.90;;;;;;5078954;28;19980;-84
2022/04/23 07:42:23;;;;;;;;;;;14.90;99.90;;;;;;5093677;28;19920;-89
2022/04/23 07:44:48;;;;;;;;;;;15.60;99.90;;;;;;5109858;28;19931;-82
2022/04/23 07:47:14;;;;;;;;;;;16.10;99.90;;;;;;5092981;28;19915;-76
2022/04/23 07:49:39;;;;;;;;;;;16.50;99.20;;;;;;5093106;28;20023;-82
2022/04/23 07:52:05;;;;;;;;;;;17.20;99.40;;;;;;5092465;28;20375;-73
2022/04/23 07:54:30;;;;;;;;;;;17.50;96.90;;;;;;5093999;28;19923;-77
2022/04/23 07:56:56;;;;;;;;;;;17.40;97.20;;;;;;5093095;28;20030;-71
2022/04/23 07:59:22;;;;;;;;;;;17.50;95.70;;;;;;5091314;28;20389;-77
2022/04/23 08:01:49;;;;;;;;;;;17.80;96.10;;;;;;5091035;28;19923;-77
2022/04/23 08:04:14;;;;;;;;;;;18.10;95.00;;;;;;5093652;28;19976;-77
2022/04/23 08:06:40;;;;;;;;;;;18.30;94.70;;;;;;5090757;28;19924;-78
2022/04/23 08:09:05;;;;;;;;;;;18.20;93.90;;;;;;5091520;28;20030;-77
2022/04/23 08:11:31;;;;;;;;;;;18.30;93.70;;;;;;5091583;28;19963;-76
2022/04/23 08:13:57;;;;;;;;;;;18.30;93.60;;;;;;5089608;28;20283;-74
2022/04/23 08:16:22;;;;;;;;;;;18.40;92.30;;;;;;5082743;28;19927;-78
2022/04/23 08:18:48;;;;;;;;;;;18.50;91.30;;;;;;5088322;28;19920;-77
2022/04/23 08:21:14;;;;;;;;;;;18.60;91.60;;;;;;5089758;28;19920;-77
2022/04/23 08:23:39;;;;;;;;;;;19.10;91.20;;;;;;5088685;28;19924;-77
2022/04/23 08:26:05;;;;;;;;;;;19.20;90.70;;;;;;5091349;28;20003;-73
2022/04/23 08:31:18;;;;;;;;;;;19.50;88.60;;;;;;5091025;28;19927;-73
2022/04/23 08:33:59;;;;;;;;;;;19.70;87.60;;;;;;5091146;28;20274;-75
2022/04/23 08:36:29;;;;;;;;;;;19.60;84.60;;;;;;5092421;28;19920;-71
2022/04/23 08:38:56;;;;;;;;;;;19.70;84.00;;;;;;5092200;28;19919;-74
2022/04/23 08:41:31;;;;;;;;;;;20.00;83.00;;;;;;5091894;28;20351;-69
2022/04/23 08:44:09;;;;;;;;;;;20.00;80.00;;;;;;5089836;28;19920;-72
2022/04/23 08:46:36;;;;;;;;;;;20.10;80.80;;;;;;5092477;28;20321;-73
2022/04/23 08:49:13;;;;;;;;;;;19.80;80.60;;;;;;5090897;28;19923;-71
2022/04/23 08:51:41;;;;;;;;;;;20.00;81.60;;;;;;5073165;28;19970;-72
2022/04/23 08:54:08;;;;;;;;;;;19.90;77.30;;;;;;5071901;28;20363;-70
2022/04/23 08:56:34;;;;;;;;;;;20.00;77.50;;;;;;5071814;28;19920;-69
2022/04/23 08:58:59;;;;;;;;;;;19.90;76.30;;;;;;5079839;28;19920;-71
2022/04/23 09:01:25;;;;;;;;;;;20.00;77.80;;;;;;5092324;28;20275;-72
2022/04/23 09:03:51;;;;;;;;;;;20.30;78.10;;;;;;5091693;28;19927;-71
2022/04/23 09:06:16;;;;;;;;;;;20.10;75.70;;;;;;5091431;28;19924;-76
2022/04/23 09:09:00;;;;;;;;;;;20.00;75.70;;;;;;5092596;28;19974;-75
2022/04/23 09:11:34;;;;;;;;;;;20.10;74.70;;;;;;5092082;28;20311;-73
2022/04/23 09:13:59;;;;;;;;;;;20.30;75.20;;;;;;5106632;28;19927;-75
2022/04/23 09:24:45;;;;;;;;;;;20.80;73.40;;;;;;5071375;28;20383;-73
2022/04/23 09:27:11;;;;;;;;;;;20.60;73.50;;;;;;5071003;28;20450;-73
2022/04/23 09:29:37;;;;;;;;;;;20.70;72.80;;;;;;5084308;28;20006;-73
2022/04/23 09:32:09;;;;;;;;;;;20.70;71.20;;;;;;5096150;28;19927;-75
2022/04/23 09:34:35;;;;;;;;;;;20.70;71.80;;;;;;5095484;28;19927;-75
2022/04/23 09:37:00;;;;;;;;;;;20.40;71.20;;;;;;5096233;28;19920;-73
2022/04/23 09:39:34;;;;;;;;;;;20.80;72.60;;;;;;5095686;28;19943;-75
2022/04/23 09:42:16;;;;;;;;;;;20.70;71.80;;;;;;5095156;28;20333;-73
2022/04/23 09:44:42;;;;;;;;;;;20.30;70.80;;;;;;5092522;28;20007;-74
2022/04/23 09:47:08;;;;;;;;;;;20.20;73.20;;;;;;5095282;28;20011;-74
2022/04/23 09:49:34;;;;;;;;;;;20.40;72.20;;;;;;5096570;28;20367;-75
2022/04/23 09:52:02;;;;;;;;;;;20.50;72.10;;;;;;5096015;28;19973;-75
2022/04/23 09:54:29;;;;;;;;;;;20.60;72.60;;;;;;5095111;28;19974;-77
2022/04/23 09:56:55;;;;;;;;;;;20.60;71.10;;;;;;5095640;28;19924;-78
2022/04/23 09:59:21;;;;;;;;;;;20.50;71.50;;;;;;5094277;28;19920;-76
2022/04/23 10:01:47;;;;;;;;;;;20.50;73.20;;;;;;5094511;28;19927;-78
2022/04/23 10:04:17;;;;;;;;;;;20.50;72.70;;;;;;5095654;28;19949;-80
2022/04/23 10:06:44;;;;;;;;;;;20.80;73.80;;;;;;5095090;28;19919;-81
2022/04/23 10:09:11;;;;;;;;;;;20.70;71.10;;;;;;5095970;28;19920;-80
2022/04/23 10:11:40;;;;;;;;;;;21.10;73.60;;;;;;5094243;28;19920;-79
2022/04/23 10:14:06;;;;;;;;;;;21.30;70.90;;;;;;5094765;28;19920;-77
2022/04/23 10:16:32;;;;;;;;;;;21.40;71.90;;;;;;5095000;28;19926;-80
2022/04/23 10:18:58;;;;;;;;;;;21.40;70.00;;;;;;5094406;28;19920;-79
2022/04/23 10:21:29;;;;;;;;;;;21.50;69.20;;;;;;5094790;28;19920;-82
2022/04/23 10:24:01;;;;;;;;;;;21.30;70.30;;;;;;5094427;28;19963;-84
2022/04/23 10:26:34;;;;;;;;;;;21.10;70.40;;;;;;5094394;28;19920;-78
2022/04/23 10:29:00;;;;;;;;;;;21.30;72.20;;;;;;5095564;28;20356;-76
2022/04/23 10:31:26;;;;;;;;;;;21.20;70.30;;;;;;5094511;28;20070;-78
2022/04/23 10:33:52;;;;;;;;;;;21.20;72.00;;;;;;5094349;28;19994;-83
2022/04/23 10:36:18;;;;;;;;;;;20.90;72.00;;;;;;5094259;28;20327;-76
2022/04/23 10:38:53;;;;;;;;;;;21.40;70.60;;;;;;5095877;28;19924;-81
2022/04/23 10:41:20;;;;;;;;;;;21.50;70.40;;;;;;5093149;28;19985;-80
2022/04/23 10:43:50;;;;;;;;;;;21.90;70.80;;;;;;5093786;28;20309;-81
2022/04/23 10:46:35;;;;;;;;;;;21.70;70.70;;;;;;5087245;28;20007;-80
2022/04/23 10:49:13;;;;;;;;;;;22.00;71.70;;;;;;5079277;28;19924;-78
2022/04/23 10:51:49;;;;;;;;;;;21.70;69.90;;;;;;5093452;28;19943;-78
2022/04/23 10:54:17;;;;;;;;;;;21.70;70.10;;;;;;5090731;28;19920;-77
2022/04/23 10:56:47;;;;;;;;;;;21.80;70.40;;;;;;5094387;28;20364;-75
2022/04/23 10:59:31;;;;;;;;;;;21.70;69.50;;;;;;5094565;28;19959;-74
2022/04/23 11:02:02;;;;;;;;;;;21.60;69.90;;;;;;5092473;28;20318;-75
2022/04/23 11:04:27;;;;;;;;;;;21.90;70.40;;;;;;5095413;28;19926;-79
2022/04/23 11:12:18;;;;;;;;;;;21.70;68.60;;;;;;5092992;28;19920;-76
2022/04/23 11:14:45;;;;;;;;;;;21.70;67.10;;;;;;5094786;28;19920;-78
2022/04/23 11:17:14;;;;;;;;;;;21.70;68.50;;;;;;5094485;28;20338;-81
2022/04/23 11:19:40;;;;;;;;;;;21.40;69.60;;;;;;5091457;28;19943;-84
2022/04/23 11:22:06;;;;;;;;;;;21.70;67.90;;;;;;5092092;28;20368;-83
2022/04/23 11:24:32;;;;;;;;;;;21.80;66.30;;;;;;5093513;28;19920;-80
2022/04/23 11:26:58;;;;;;;;;;;21.90;67.50;;;;;;5094398;28;19927;-79
2022/04/23 11:29:26;;;;;;;;;;;21.80;68.70;;;;;;5093065;28;20374;-80
2022/04/23 11:31:58;;;;;;;;;;;22.10;65.10;;;;;;5092915;28;20023;-77
2022/04/23 11:34:24;;;;;;;;;;;22.20;66.50;;;;;;5093151;28;19970;-78
2022/04/23 11:36:49;;;;;;;;;;;21.80;66.40;;;;;;5092428;28;19967;-75
2022/04/23 11:39:15;;;;;;;;;;;21.70;65.80;;;;;;5092840;28;19920;-86
2022/04/23 11:41:42;;;;;;;;;;;21.40;64.40;;;;;;5093755;28;19927;-77
2022/04/23 11:44:45;;;;;;;;;;;21.60;66.20;;;;;;5088789;28;19926;-74
2022/04/23 11:47:10;;;;;;;;;;;21.80;65.30;;;;;;5091258;28;19966;-82
2022/04/23 11:49:35;;;;;;;;;;;21.90;65.30;;;;;;5095448;28;19924;-80
2022/04/23 11:52:14;;;;;;;;;;;21.90;64.10;;;;;;5092056;28;19964;-76
2022/04/23 11:54:43;;;;;;;;;;;21.80;65.60;;;;;;5093793;28;20407;-78
2022/04/23 11:57:10;;;;;;;;;;;21.80;64.00;;;;;;5093825;28;20283;-84
2022/04/23 11:59:36;;;;;;;;;;;21.80;64.70;;;;;;5093986;28;19920;-78
2022/04/23 12:02:02;;;;;;;;;;;21.60;63.60;;;;;;5092208;28;19928;-75
2022/04/23 12:04:39;;;;;;;;;;;21.50;64.00;;;;;;5092491;28;20021;-76
2022/04/23 12:07:05;;;;;;;;;;;21.70;64.10;;;;;;5093815;28;19920;-82
2022/04/23 12:09:30;;;;;;;;;;;21.40;63.60;;;;;;5093140;28;19920;-81
2022/04/23 12:12:02;;;;;;;;;;;21.30;63.90;;;;;;5092257;28;19919;-79
2022/04/23 12:14:28;;;;;;;;;;;21.40;64.90;;;;;;5082990;28;19935;-82
2022/04/23 12:17:05;;;;;;;;;;;21.60;65.00;;;;;;5081766;28;19924;-78
2022/04/23 12:19:32;;;;;;;;;;;21.70;63.50;;;;;;5084820;28;20376;-80
2022/04/23 12:21:58;;;;;;;;;;;21.90;62.40;;;;;;5087987;28;20303;-75
2022/04/23 12:24:30;;;;;;;;;;;21.70;62.80;;;;;;5088147;28;19924;-73
2022/04/23 12:27:03;;;;;;;;;;;21.80;63.80;;;;;;5104558;28;19924;-71
2022/04/23 12:40:44;;;;;;;;;;;21.20;63.20;;;;;;5082359;28;20030;-78
2022/04/23 12:43:22;;;;;;;;;;;21.20;64.40;;;;;;5087859;28;20069;-74
2022/04/23 12:45:49;;;;;;;;;;;20.90;64.00;;;;;;5091680;28;19964;-72
2022/04/23 12:48:14;;;;;;;;;;;21.10;64.40;;;;;;5086657;28;20027;-81
2022/04/23 12:50:41;;;;;;;;;;;21.50;63.40;;;;;;5088096;28;20387;-79
2022/04/23 12:53:06;;;;;;;;;;;20.70;63.40;;;;;;5086157;28;19947;-81
2022/04/23 12:55:38;;;;;;;;;;;20.70;64.80;;;;;;5086534;28;20390;-80
2022/04/23 12:58:03;;;;;;;;;;;20.40;64.00;;;;;;5086724;28;19958;-80
2022/04/23 13:00:29;;;;;;;;;;;20.60;64.80;;;;;;5095850;28;20391;-80
2022/04/23 13:03:00;;;;;;;;;;;20.40;64.10;;;;;;5086239;28;19931;-80
2022/04/23 13:05:26;;;;;;;;;;;20.20;62.60;;;;;;5084630;28;19943;-81
2022/04/23 13:10:36;;;;;;;;;;;20.50;63.50;;;;;;5088052;28;19924;-80
2022/04/23 13:13:02;;;;;;;;;;;20.50;61.50;;;;;;5085339;28;19935;-80
2022/04/23 13:15:28;;;;;;;;;;;20.30;61.40;;;;;;5090166;28;20003;-76
2022/04/23 13:17:54;;;;;;;;;;;20.30;62.80;;;;;;5092763;28;20017;-74
2022/04/23 13:20:20;;;;;;;;;;;20.40;62.90;;;;;;5092281;28;19983;-79
2022/04/23 13:22:46;;;;;;;;;;;20.40;62.40;;;;;;5090127;28;19920;-77
2022/04/23 13:25:13;;;;;;;;;;;20.50;62.00;;;;;;5092396;28;20025;-79
2022/04/23 13:27:39;;;;;;;;;;;20.30;61.00;;;;;;5092141;28;19924;-74
2022/04/23 13:30:05;;;;;;;;;;;20.20;62.30;;;;;;5090269;28;19928;-75
2022/04/23 13:32:32;;;;;;;;;;;20.30;60.50;;;;;;5092169;28;20003;-82
2022/04/23 13:34:58;;;;;;;;;;;20.10;61.10;;;;;;5089670;28;19931;-78
2022/04/23 13:37:23;;;;;;;;;;;20.30;61.30;;;;;;5086423;28;19920;-74
2022/04/23 13:39:49;;;;;;;;;;;20.30;63.60;;;;;;5090279;28;19927;-74
2022/04/23 13:42:16;;;;;;;;;;;20.50;62.60;;;;;;5090067;28;19973;-77
2022/04/23 13:44:42;;;;;;;;;;;20.50;60.90;;;;;;5092113;28;19998;-81
2022/04/23 13:47:07;;;;;;;;;;;20.60;62.40;;;;;;5091189;28;20375;-76
2022/04/23 13:49:33;;;;;;;;;;;20.50;61.70;;;;;;5090582;28;20269;-78
2022/04/23 13:52:00;;;;;;;;;;;20.50;62.00;;;;;;5089649;28;19924;-73
2022/04/23 13:54:26;;;;;;;;;;;20.60;61.50;;;;;;5091031;28;20003;-76
2022/04/23 13:56:51;;;;;;;;;;;20.60;61.00;;;;;;5087875;28;20443;-74
2022/04/23 13:59:17;;;;;;;;;;;20.40;60.10;;;;;;5089046;28;20291;-76
2022/04/23 14:10:04;;;;;;;;;;;20.30;60.60;;;;;;5089447;28;19973;-77
2022/04/23 14:10:05;;;;;;;;;;;20.10;61.30;;;;;;5092508;28;19924;-76
2022/04/23 14:12:31;;;;;;;;;;;20.30;62.10;;;;;;5091687;28;19927;-75
2022/04/23 14:14:57;;;;;;;;;;;20.20;61.40;;;;;;5091964;28;19923;-75
2022/04/23 14:17:23;;;;;;;;;;;20.30;60.90;;;;;;5095653;28;19981;-77
2022/04/23 14:19:49;;;;;;;;;;;20.20;59.80;;;;;;5094427;28;19920;-75
2022/04/23 14:22:15;;;;;;;;;;;20.20;60.60;;;;;;5094064;28;19927;-82
2022/04/23 14:24:40;;;;;;;;;;;20.20;60.60;;;;;;5111866;28;19920;-87
2022/04/23 14:27:06;;;;;;;;;;;20.20;62.20;;;;;;5095099;28;20272;-88
2022/04/23 14:29:31;;;;;;;;;;;20.30;60.40;;;;;;5111866;28;20053;-77
2022/04/23 14:31:58;;;;;;;;;;;20.10;59.00;;;;;;5088022;28;19920;-76
2022/04/23 14:34:23;;;;;;;;;;;20.10;59.70;;;;;;5074242;28;20010;-79
2022/04/23 14:36:49;;;;;;;;;;;20.00;58.90;;;;;;5077113;28;20390;-76
2022/04/23 14:39:14;;;;;;;;;;;20.00;59.70;;;;;;5093792;28;19920;-78
2022/04/23 14:41:40;;;;;;;;;;;19.90;60.30;;;;;;5095429;28;19926;-81
2022/04/23 14:44:05;;;;;;;;;;;19.90;60.90;;;;;;5092099;28;19920;-79
2022/04/23 14:46:31;;;;;;;;;;;19.90;60.00;;;;;;5092608;28;19920;-74
2022/04/23 14:48:57;;;;;;;;;;;19.60;59.50;;;;;;5093095;28;19916;-74
2022/04/23 14:54:06;;;;;;;;;;;19.60;60.20;;;;;;5078344;28;19920;-74
2022/04/23 14:56:32;;;;;;;;;;;19.60;59.30;;;;;;5095519;28;20369;-72
2022/04/23 14:59:00;;;;;;;;;;;19.60;60.40;;;;;;5093109;28;19919;-82
2022/04/23 15:01:25;;;;;;;;;;;19.60;59.50;;;;;;5094776;28;20432;-78
2022/04/23 15:03:51;;;;;;;;;;;19.70;59.60;;;;;;5095245;28;19963;-78